Uvalde Research's Hourly Summary for Tuesday, January 12, 2021
Hour Temp
(f)
RH
(%)
Solar Rad.
(MJ/m2)
Rainfall
(in)
Wind
(mph)
Battery
(volts)
1/12/2021 12:00 AM 41 69 0 0 0.66 12.45
1/12/2021 1:00 AM 37 77 0 0 0.01 12.44
1/12/2021 2:00 AM 37 80 0 0 0.48 12.43
1/12/2021 3:00 AM 33 85 0 0 0 12.39
1/12/2021 4:00 AM 32 88 0 0 0.14 12.39
1/12/2021 5:00 AM 32 90 0 0 0.67 12.38
1/12/2021 6:00 AM 31 89 0 0 0.18 12.36
1/12/2021 7:00 AM 29 90 0 0 0.04 12.34
1/12/2021 8:00 AM 30 91 0.02 0 0.25 12.35
1/12/2021 9:00 AM 33 89 0.42 0 0.04 12.51
1/12/2021 10:00 AM 39 76 0.99 0 0.24 13.81
1/12/2021 11:00 AM 44 60 1.45 0 0.59 13.3
1/12/2021 12:00 PM 46 55 1.84 0 1.2 13.73
1/12/2021 1:00 PM 47 52 1.58 0 1.35 13.7
1/12/2021 2:00 PM 49 50 2.01 0 1.7 13.64
1/12/2021 3:00 PM 50 49 1.51 0 1.37 13.29
1/12/2021 4:00 PM 50 47 1.22 0 1.68 13.56
1/12/2021 5:00 PM 51 45 0.77 0 1.32 13.65
1/12/2021 6:00 PM 50 47 0.15 0 1.01 12.75
1/12/2021 7:00 PM 46 56 0 0 0.45 12.64
1/12/2021 8:00 PM 42 67 0 0 0 12.61
1/12/2021 9:00 PM 40 73 0 0 0 12.59
1/12/2021 10:00 PM 38 78 0 0 0 12.57
1/12/2021 11:00 PM 38 78 0 0 0.09 12.55
Data Summary 40 70 11.96 0.00 0.56 12.85